createdAt,value
2019-06-20T00:00:37.289Z,968.47
2019-06-20T00:01:37.312Z,968.47
2019-06-20T00:02:37.290Z,968.44
2019-06-20T00:03:37.299Z,968.47
2019-06-20T00:04:37.291Z,968.45
2019-06-20T00:05:37.292Z,968.50
2019-06-20T00:06:37.326Z,968.53
2019-06-20T00:07:37.299Z,968.50
2019-06-20T00:08:37.332Z,968.47
2019-06-20T00:09:37.297Z,968.45
2019-06-20T00:10:37.306Z,968.44
2019-06-20T00:11:37.310Z,968.45
2019-06-20T00:12:37.340Z,968.46
2019-06-20T00:13:37.310Z,968.51
2019-06-20T00:14:37.378Z,968.46
2019-06-20T00:15:37.317Z,968.53
2019-06-20T00:16:37.319Z,968.52
2019-06-20T00:17:37.348Z,968.55
2019-06-20T00:18:37.320Z,968.60
2019-06-20T00:19:37.329Z,968.59
2019-06-20T00:20:37.331Z,968.62
2019-06-20T00:21:37.339Z,968.64
2019-06-20T00:22:37.379Z,968.65
2019-06-20T00:23:37.328Z,968.63
2019-06-20T00:24:37.340Z,968.58
2019-06-20T00:25:37.336Z,968.55
2019-06-20T00:26:37.366Z,968.63
2019-06-20T00:27:37.343Z,968.63
2019-06-20T00:28:37.386Z,968.62
2019-06-20T00:29:37.342Z,968.67
2019-06-20T00:30:37.355Z,968.69
2019-06-20T00:31:37.359Z,968.66
2019-06-20T00:32:37.384Z,968.70
2019-06-20T00:33:37.356Z,968.69
2019-06-20T00:34:37.377Z,968.71
2019-06-20T00:35:37.359Z,968.67
2019-06-20T00:36:37.364Z,968.68
2019-06-20T00:37:37.403Z,968.62
2019-06-20T00:38:37.407Z,968.59
2019-06-20T00:39:37.374Z,968.58
2019-06-20T00:40:37.381Z,968.57
2019-06-20T00:41:37.440Z,968.59
2019-06-20T00:42:37.380Z,968.60
2019-06-20T00:43:37.411Z,968.51
2019-06-20T00:44:37.391Z,968.54
2019-06-20T00:45:37.397Z,968.58
2019-06-20T00:46:37.381Z,968.55
2019-06-20T00:47:37.396Z,968.57
2019-06-20T00:48:37.429Z,968.56
2019-06-20T00:49:37.392Z,968.62
2019-06-20T00:50:37.396Z,968.59
2019-06-20T00:51:37.398Z,968.54
2019-06-20T00:52:37.405Z,968.59
2019-06-20T00:53:37.425Z,968.66
2019-06-20T00:54:37.415Z,968.64
2019-06-20T00:55:37.412Z,968.61
2019-06-20T00:56:37.423Z,968.67
2019-06-20T00:57:37.415Z,968.64
2019-06-20T00:58:37.439Z,968.62
2019-06-20T00:59:37.426Z,968.63
2019-06-20T01:00:37.415Z,968.67
2019-06-20T01:01:37.421Z,968.71
2019-06-20T01:02:37.433Z,968.68
2019-06-20T01:03:37.454Z,968.67
2019-06-20T01:04:37.426Z,968.68
2019-06-20T01:05:37.432Z,968.58
2019-06-20T01:06:37.426Z,968.63
2019-06-20T01:07:37.444Z,968.64
2019-06-20T01:08:37.466Z,968.65
2019-06-20T01:09:37.450Z,968.62
2019-06-20T01:10:37.440Z,968.63
2019-06-20T01:11:37.458Z,968.66
2019-06-20T01:12:37.452Z,968.64
2019-06-20T01:13:37.485Z,968.61
2019-06-20T01:14:37.480Z,968.67
2019-06-20T01:15:37.456Z,968.67
2019-06-20T01:16:37.466Z,968.66
2019-06-20T01:17:37.453Z,968.59
2019-06-20T01:18:37.486Z,968.58
2019-06-20T01:19:37.509Z,968.64
2019-06-20T01:20:37.465Z,968.60
2019-06-20T01:21:37.465Z,968.65
2019-06-20T01:22:37.467Z,968.65
2019-06-20T01:23:37.498Z,968.71
2019-06-20T01:24:37.478Z,968.74
2019-06-20T01:25:37.492Z,968.69
2019-06-20T01:26:37.485Z,968.79
2019-06-20T01:27:37.480Z,968.78
2019-06-20T01:28:37.521Z,968.80
2019-06-20T01:29:37.480Z,968.76
2019-06-20T01:30:37.487Z,968.74
2019-06-20T01:31:37.483Z,968.76
2019-06-20T01:32:37.499Z,968.74
2019-06-20T01:33:37.516Z,968.66
2019-06-20T01:34:37.516Z,968.65
2019-06-20T01:35:37.500Z,968.60
2019-06-20T01:36:37.488Z,968.59
2019-06-20T01:37:37.499Z,968.58
2019-06-20T01:38:37.495Z,968.63
2019-06-20T01:39:37.530Z,968.63
2019-06-20T01:40:37.518Z,968.62
2019-06-20T01:41:37.506Z,968.63
2019-06-20T01:42:37.507Z,968.61
2019-06-20T01:43:50.273Z,968.61
2019-06-20T01:44:37.509Z,968.60
2019-06-20T01:45:37.521Z,968.59
2019-06-20T01:46:37.513Z,968.67
2019-06-20T01:47:37.510Z,968.72
2019-06-20T01:48:37.545Z,968.77
2019-06-20T01:49:37.525Z,968.85
2019-06-20T01:50:37.526Z,968.95
2019-06-20T01:51:37.517Z,969.02
2019-06-20T01:52:37.542Z,969.09
2019-06-20T01:53:37.555Z,969.09
2019-06-20T01:54:37.539Z,969.06
2019-06-20T01:55:37.527Z,969.09
2019-06-20T01:56:37.534Z,969.09
2019-06-20T01:57:37.577Z,969.16
2019-06-20T01:58:37.546Z,969.11
2019-06-20T01:59:37.564Z,969.10
2019-06-20T02:00:37.545Z,969.17
2019-06-20T02:01:37.541Z,969.17
2019-06-20T02:02:37.541Z,969.23
2019-06-20T02:03:37.586Z,969.21
2019-06-20T02:04:37.554Z,969.19
2019-06-20T02:05:37.551Z,969.15
2019-06-20T02:06:37.545Z,969.15
2019-06-20T02:07:37.581Z,969.23
2019-06-20T02:08:37.558Z,969.30
2019-06-20T02:09:37.584Z,969.31
2019-06-20T02:10:37.554Z,969.32
2019-06-20T02:11:37.555Z,969.29
2019-06-20T02:12:37.562Z,969.32
2019-06-20T02:13:37.600Z,969.31
2019-06-20T02:14:37.605Z,969.29
2019-06-20T02:15:37.578Z,969.22
2019-06-20T02:16:37.566Z,969.20
2019-06-20T02:17:37.593Z,969.24
2019-06-20T02:18:37.570Z,969.24
2019-06-20T02:19:37.607Z,969.28
2019-06-20T02:20:37.573Z,969.31
2019-06-20T02:21:37.577Z,969.37
2019-06-20T02:22:37.571Z,969.34
2019-06-20T02:23:37.579Z,969.34
2019-06-20T02:24:37.575Z,969.34
2019-06-20T02:25:37.614Z,969.28
2019-06-20T02:26:37.587Z,969.23
2019-06-20T02:27:37.581Z,969.22
2019-06-20T02:28:37.593Z,969.25
2019-06-20T02:29:37.600Z,969.25
2019-06-20T02:30:37.639Z,969.23
2019-06-20T02:31:37.593Z,969.17
2019-06-20T02:32:37.594Z,969.18
2019-06-20T02:33:37.601Z,969.18
2019-06-20T02:34:37.603Z,969.21
2019-06-20T02:35:37.632Z,969.23
2019-06-20T02:36:37.606Z,969.26
2019-06-20T02:37:37.600Z,969.29
2019-06-20T02:38:37.602Z,969.35
2019-06-20T02:39:37.610Z,969.43
2019-06-20T02:40:37.647Z,969.44
2019-06-20T02:41:37.609Z,969.47
2019-06-20T02:42:37.637Z,969.51
2019-06-20T02:43:37.616Z,969.55
2019-06-20T02:44:37.630Z,969.59
2019-06-20T02:45:37.660Z,969.65
2019-06-20T02:46:37.616Z,969.70
2019-06-20T02:47:37.619Z,969.80
2019-06-20T02:48:37.623Z,969.98
2019-06-20T02:49:37.624Z,970.20
2019-06-20T02:50:37.746Z,970.45
2019-06-20T02:51:37.627Z,970.55
2019-06-20T02:52:37.635Z,970.64
2019-06-20T02:53:37.640Z,970.73
2019-06-20T02:54:37.646Z,970.64
2019-06-20T02:55:37.668Z,970.56
2019-06-20T02:56:37.637Z,970.60
2019-06-20T02:57:37.641Z,970.80
2019-06-20T02:58:37.648Z,970.91
2019-06-20T02:59:37.652Z,970.90
2019-06-20T03:00:37.677Z,970.89
2019-06-20T03:01:37.647Z,970.90
2019-06-20T03:02:37.654Z,970.84
2019-06-20T03:03:37.656Z,970.84
2019-06-20T03:04:37.656Z,970.96
2019-06-20T03:05:37.686Z,971.01
2019-06-20T03:06:37.664Z,971.10
2019-06-20T03:07:37.660Z,971.23
2019-06-20T03:08:37.713Z,971.12
2019-06-20T03:09:37.666Z,971.24
2019-06-20T03:10:37.699Z,971.30
2019-06-20T03:11:37.667Z,971.35
2019-06-20T03:12:37.672Z,971.38
2019-06-20T03:13:37.667Z,971.38
2019-06-20T03:14:45.554Z,971.42
2019-06-20T03:15:37.706Z,971.33
2019-06-20T03:16:37.677Z,971.32
2019-06-20T03:17:37.674Z,971.33
2019-06-20T03:18:37.683Z,971.31
2019-06-20T03:19:37.677Z,971.30
2019-06-20T03:20:37.712Z,971.13
2019-06-20T03:21:37.700Z,971.36
2019-06-20T03:22:37.680Z,971.36
2019-06-20T03:23:37.696Z,971.41
2019-06-20T03:24:37.700Z,971.43
2019-06-20T03:25:37.724Z,971.35
2019-06-20T03:26:37.699Z,971.39
2019-06-20T03:27:37.688Z,971.31
2019-06-20T03:28:37.695Z,971.34
2019-06-20T03:29:37.755Z,971.33
2019-06-20T03:30:37.725Z,971.25
2019-06-20T03:31:37.698Z,971.27
2019-06-20T03:32:37.695Z,971.24
2019-06-20T03:33:37.707Z,971.20
2019-06-20T03:34:37.701Z,971.18
2019-06-20T03:35:37.749Z,971.13
2019-06-20T03:36:37.712Z,971.18
2019-06-20T03:37:37.710Z,971.21
2019-06-20T03:38:37.711Z,971.19
2019-06-20T03:39:37.707Z,971.15
2019-06-20T03:40:37.734Z,971.17
2019-06-20T03:41:37.710Z,971.27
2019-06-20T03:42:37.735Z,971.36
2019-06-20T03:43:37.764Z,971.35
2019-06-20T03:44:37.716Z,971.27
2019-06-20T03:45:37.753Z,971.11
2019-06-20T03:46:37.717Z,971.00
2019-06-20T03:47:37.715Z,970.93
2019-06-20T03:48:37.721Z,970.98
2019-06-20T03:49:37.718Z,971.03
2019-06-20T03:50:37.767Z,971.06
2019-06-20T03:51:37.720Z,971.01
2019-06-20T03:52:37.726Z,971.01
2019-06-20T03:53:37.728Z,970.98
2019-06-20T03:54:37.760Z,970.89
2019-06-20T03:55:37.756Z,970.83
2019-06-20T03:56:37.735Z,970.73
2019-06-20T03:57:37.732Z,970.67
2019-06-20T03:58:37.731Z,970.77
2019-06-20T03:59:37.731Z,970.95
2019-06-20T04:00:37.761Z,971.11
2019-06-20T04:01:37.737Z,971.15
2019-06-20T04:02:37.741Z,971.09
2019-06-20T04:03:37.743Z,971.13
2019-06-20T04:04:37.736Z,971.03
2019-06-20T04:05:37.772Z,970.95
2019-06-20T04:06:37.744Z,970.88
2019-06-20T04:07:37.759Z,970.84
2019-06-20T04:08:37.747Z,970.83
2019-06-20T04:09:37.742Z,970.78
2019-06-20T04:10:37.772Z,970.76
2019-06-20T04:11:37.747Z,970.72
2019-06-20T04:12:37.743Z,970.67
2019-06-20T04:13:37.744Z,970.57
2019-06-20T04:14:37.755Z,970.47
2019-06-20T04:15:37.779Z,970.39
2019-06-20T04:16:37.780Z,970.37
2019-06-20T04:17:37.755Z,970.38
2019-06-20T04:18:37.749Z,970.33
2019-06-20T04:19:37.755Z,970.25
2019-06-20T04:20:37.755Z,970.28
2019-06-20T04:21:37.792Z,970.32
2019-06-20T04:22:37.769Z,970.40
2019-06-20T04:23:37.753Z,970.50
2019-06-20T04:24:37.755Z,970.46
2019-06-20T04:25:37.754Z,970.48
2019-06-20T04:26:37.787Z,970.53
2019-06-20T04:27:37.756Z,970.61
2019-06-20T04:28:37.760Z,970.52
2019-06-20T04:29:37.755Z,970.54
2019-06-20T04:30:37.770Z,970.49
2019-06-20T04:31:37.794Z,970.42
2019-06-20T04:32:37.761Z,970.39
2019-06-20T04:33:37.763Z,970.41
2019-06-20T04:34:37.772Z,970.43
2019-06-20T04:35:37.769Z,970.44
2019-06-20T04:36:37.801Z,970.48
2019-06-20T04:37:37.764Z,970.46
2019-06-20T04:38:37.772Z,970.45
2019-06-20T04:39:37.769Z,970.45
2019-06-20T04:40:37.767Z,970.51
2019-06-20T04:41:37.802Z,970.53
2019-06-20T04:42:37.774Z,970.58
2019-06-20T04:43:37.781Z,970.59
2019-06-20T04:44:37.775Z,970.59
2019-06-20T04:45:37.773Z,970.60
2019-06-20T04:46:37.805Z,970.62
2019-06-20T04:47:37.798Z,970.57
2019-06-20T04:48:37.788Z,970.58
2019-06-20T04:49:37.795Z,970.63
2019-06-20T04:50:37.785Z,970.59
2019-06-20T04:51:37.810Z,970.61
2019-06-20T04:52:37.797Z,970.66
2019-06-20T04:53:37.784Z,970.71
2019-06-20T04:54:37.791Z,970.69
2019-06-20T04:55:37.874Z,970.73
2019-06-20T04:56:37.830Z,970.75
2019-06-20T04:57:37.796Z,970.76
2019-06-20T04:58:37.980Z,970.78
2019-06-20T04:59:37.806Z,970.84
2019-06-20T05:00:37.817Z,970.82
2019-06-20T05:01:37.825Z,970.81
2019-06-20T05:02:37.801Z,970.79
2019-06-20T05:03:37.804Z,970.84
2019-06-20T05:04:37.809Z,970.84
2019-06-20T05:05:37.806Z,970.90
2019-06-20T05:06:37.832Z,970.93
2019-06-20T05:07:37.811Z,970.96
2019-06-20T05:08:37.820Z,970.99
2019-06-20T05:09:37.808Z,970.98
2019-06-20T05:10:37.810Z,971.05
2019-06-20T05:11:37.842Z,971.07
2019-06-20T05:12:37.820Z,971.07
2019-06-20T05:13:37.823Z,971.11
2019-06-20T05:14:37.819Z,971.10
2019-06-20T05:15:51.505Z,971.13
2019-06-20T05:16:37.862Z,971.17
2019-06-20T05:17:37.836Z,971.16
2019-06-20T05:18:37.837Z,971.19
2019-06-20T05:19:37.831Z,971.21
2019-06-20T05:20:37.835Z,971.23
2019-06-20T05:21:37.876Z,971.23
2019-06-20T05:22:37.845Z,971.17
2019-06-20T05:23:37.881Z,971.17
2019-06-20T05:24:37.847Z,971.19
2019-06-20T05:25:37.859Z,971.22
2019-06-20T05:26:37.849Z,971.17
2019-06-20T05:27:37.881Z,971.20
2019-06-20T05:28:37.962Z,971.24
2019-06-20T05:29:37.854Z,971.24
2019-06-20T05:30:37.863Z,971.21
2019-06-20T05:31:37.855Z,971.27
2019-06-20T05:32:37.895Z,971.25
2019-06-20T05:33:37.865Z,971.28
2019-06-20T05:34:37.864Z,971.24
2019-06-20T05:35:37.864Z,971.24
2019-06-20T05:36:37.881Z,971.26
2019-06-20T05:37:37.904Z,971.27
2019-06-20T05:38:37.884Z,971.28
2019-06-20T05:39:37.883Z,971.28
2019-06-20T05:40:37.878Z,971.34
2019-06-20T05:41:37.891Z,971.29
2019-06-20T05:42:37.916Z,971.27
2019-06-20T05:43:37.899Z,971.28
2019-06-20T05:44:37.904Z,971.28
2019-06-20T05:45:37.892Z,971.30
2019-06-20T05:46:37.906Z,971.28
2019-06-20T05:47:37.935Z,971.32
2019-06-20T05:48:38.013Z,971.34
2019-06-20T05:49:37.911Z,971.36
2019-06-20T05:50:37.907Z,971.36
2019-06-20T05:51:39.855Z,971.38
2019-06-20T05:52:37.943Z,971.42
2019-06-20T05:53:37.926Z,971.42
2019-06-20T05:54:37.926Z,971.44
2019-06-20T05:55:37.926Z,971.45
2019-06-20T05:56:37.933Z,971.49
2019-06-20T05:57:37.959Z,971.53
2019-06-20T05:58:37.930Z,971.51
2019-06-20T05:59:37.934Z,971.56
2019-06-20T06:00:37.939Z,971.53
2019-06-20T06:01:37.946Z,971.55
2019-06-20T06:02:37.976Z,971.59
2019-06-20T06:03:37.955Z,971.54
2019-06-20T06:04:37.946Z,971.54
2019-06-20T06:05:37.956Z,971.54
2019-06-20T06:06:37.964Z,971.51
2019-06-20T06:07:37.995Z,971.49
2019-06-20T06:08:37.965Z,971.49
2019-06-20T06:09:37.991Z,971.43
2019-06-20T06:10:37.975Z,971.46
2019-06-20T06:11:37.980Z,971.41
2019-06-20T06:12:37.988Z,971.44
2019-06-20T06:13:38.301Z,971.43
2019-06-20T06:14:37.983Z,971.49
2019-06-20T06:15:37.993Z,971.47
2019-06-20T06:16:37.998Z,971.47
2019-06-20T06:17:38.698Z,971.61
2019-06-20T06:18:38.027Z,971.66
2019-06-20T06:19:38.008Z,971.70
2019-06-20T06:20:38.009Z,971.70
2019-06-20T06:21:38.025Z,971.73
2019-06-20T06:22:38.028Z,971.70
2019-06-20T06:23:38.051Z,971.73
2019-06-20T06:24:38.029Z,971.65
2019-06-20T06:25:38.028Z,971.68
2019-06-20T06:26:38.033Z,971.66
2019-06-20T06:27:38.056Z,971.62
2019-06-20T06:28:38.071Z,971.46
2019-06-20T06:29:38.053Z,971.39
2019-06-20T06:30:38.060Z,971.51
2019-06-20T06:31:38.052Z,971.52
2019-06-20T06:32:40.326Z,971.63
2019-06-20T06:33:38.091Z,971.61
2019-06-20T06:34:38.075Z,971.70
2019-06-20T06:35:38.071Z,971.71
2019-06-20T06:36:38.076Z,971.65
2019-06-20T06:37:38.083Z,971.67
2019-06-20T06:38:38.118Z,971.65
2019-06-20T06:39:38.093Z,971.56
2019-06-20T06:40:38.106Z,971.43
2019-06-20T06:41:38.099Z,971.46
2019-06-20T06:42:38.112Z,971.49
2019-06-20T06:43:41.892Z,971.42
2019-06-20T06:44:38.116Z,971.52
2019-06-20T06:45:38.125Z,971.44
2019-06-20T06:46:44.763Z,971.47
2019-06-20T06:47:38.133Z,971.59
2019-06-20T06:48:38.178Z,971.67
2019-06-20T06:49:38.143Z,971.71
2019-06-20T06:50:38.146Z,971.77
2019-06-20T06:51:38.395Z,971.75
2019-06-20T06:52:38.153Z,971.79
2019-06-20T06:53:38.186Z,971.82
2019-06-20T06:54:38.161Z,971.82
2019-06-20T06:55:38.169Z,971.92
2019-06-20T06:56:38.182Z,971.88
2019-06-20T06:57:38.184Z,971.85
2019-06-20T06:58:38.211Z,971.85
2019-06-20T06:59:38.195Z,971.83
2019-06-20T07:00:38.202Z,971.85
2019-06-20T07:01:38.201Z,971.86
2019-06-20T07:02:38.209Z,971.85
2019-06-20T07:03:38.241Z,971.84
2019-06-20T07:04:38.226Z,971.80
2019-06-20T07:05:38.249Z,971.89
2019-06-20T07:06:38.230Z,971.87
2019-06-20T07:07:38.241Z,971.91
2019-06-20T07:08:38.272Z,971.92
2019-06-20T07:09:38.247Z,971.91
2019-06-20T07:10:38.252Z,971.89
2019-06-20T07:11:38.263Z,971.89
2019-06-20T07:12:38.282Z,971.88
2019-06-20T07:13:38.305Z,971.91
2019-06-20T07:14:42.387Z,971.97
2019-06-20T07:15:38.288Z,972.01
2019-06-20T07:16:38.292Z,971.98
2019-06-20T07:17:38.304Z,972.05
2019-06-20T07:18:38.337Z,972.08
2019-06-20T07:19:38.320Z,972.09
2019-06-20T07:20:38.329Z,972.08
2019-06-20T07:21:38.334Z,972.14
2019-06-20T07:22:38.333Z,972.13
2019-06-20T07:23:38.375Z,972.16
2019-06-20T07:24:38.352Z,972.15
2019-06-20T07:25:38.375Z,972.17
2019-06-20T07:26:38.369Z,972.20
2019-06-20T07:27:38.372Z,972.20
2019-06-20T07:28:38.416Z,972.10
2019-06-20T07:29:38.389Z,972.16
2019-06-20T07:30:38.402Z,972.08
2019-06-20T07:31:38.435Z,972.10
2019-06-20T07:32:38.413Z,972.03
2019-06-20T07:33:38.422Z,971.96
2019-06-20T07:34:38.457Z,972.02
2019-06-20T07:35:41.757Z,972.02
2019-06-20T07:36:38.446Z,972.05
2019-06-20T07:37:38.458Z,972.08
2019-06-20T07:38:38.469Z,972.12
2019-06-20T07:39:38.507Z,972.16
2019-06-20T07:40:38.479Z,972.19
2019-06-20T07:41:38.490Z,972.20
2019-06-20T07:42:38.491Z,972.23
2019-06-20T07:43:38.499Z,972.26
2019-06-20T07:44:38.547Z,972.26
2019-06-20T07:45:38.520Z,972.27
2019-06-20T07:46:38.529Z,972.32
2019-06-20T07:47:38.546Z,972.33
2019-06-20T07:48:38.545Z,972.29
2019-06-20T07:49:38.587Z,972.34
2019-06-20T07:50:39.427Z,972.30
2019-06-20T07:51:38.573Z,972.31
2019-06-20T07:52:38.581Z,972.25
2019-06-20T07:53:38.593Z,972.19
2019-06-20T07:54:38.635Z,972.15
2019-06-20T07:55:38.609Z,972.15
2019-06-20T07:56:38.623Z,972.15
2019-06-20T07:57:38.637Z,972.23
2019-06-20T07:58:38.647Z,972.29
2019-06-20T07:59:38.688Z,972.23
2019-06-20T08:00:38.677Z,972.23
2019-06-20T08:01:38.669Z,972.24
2019-06-20T08:02:38.676Z,972.23
2019-06-20T08:03:38.694Z,972.20
2019-06-20T08:04:38.732Z,972.18
2019-06-20T08:05:38.713Z,972.18
2019-06-20T08:06:38.723Z,972.15
2019-06-20T08:07:38.727Z,972.20
2019-06-20T08:08:38.759Z,972.21
2019-06-20T08:09:44.827Z,972.19
2019-06-20T08:10:38.764Z,972.23
2019-06-20T08:11:38.775Z,972.22
2019-06-20T08:12:38.787Z,972.22
2019-06-20T08:13:38.790Z,972.28
2019-06-20T08:14:38.847Z,972.40
2019-06-20T08:15:38.809Z,972.37
2019-06-20T08:16:38.814Z,972.34
2019-06-20T08:17:38.831Z,972.33
2019-06-20T08:18:38.865Z,972.32
2019-06-20T08:19:38.885Z,972.34
2019-06-20T08:20:38.851Z,972.32
2019-06-20T08:21:38.865Z,972.26
2019-06-20T08:22:38.870Z,972.22
2019-06-20T08:23:38.879Z,972.25
2019-06-20T08:24:38.933Z,972.26
2019-06-20T08:25:38.900Z,972.24
2019-06-20T08:26:38.914Z,972.26
2019-06-20T08:27:38.921Z,972.24
2019-06-20T08:28:38.936Z,972.22
2019-06-20T08:29:38.972Z,972.22
2019-06-20T08:30:38.958Z,972.21
2019-06-20T08:31:38.959Z,972.20
2019-06-20T08:32:38.974Z,972.22
2019-06-20T08:33:38.982Z,972.21
2019-06-20T08:34:39.033Z,972.22
2019-06-20T08:35:38.994Z,972.20
2019-06-20T08:36:39.015Z,972.22
2019-06-20T08:37:39.014Z,972.30
2019-06-20T08:38:39.026Z,972.29
2019-06-20T08:39:39.067Z,972.23
2019-06-20T08:40:39.056Z,972.22
2019-06-20T08:41:39.058Z,972.28
2019-06-20T08:42:39.062Z,972.27
2019-06-20T08:43:39.072Z,972.23
2019-06-20T08:44:39.115Z,972.21
2019-06-20T08:45:39.083Z,972.23
2019-06-20T08:46:39.098Z,972.26
2019-06-20T08:47:39.108Z,972.26
2019-06-20T08:48:39.116Z,972.27
2019-06-20T08:49:39.165Z,972.24
2019-06-20T08:50:39.158Z,972.28
2019-06-20T08:51:39.156Z,972.25
2019-06-20T08:52:39.171Z,972.30
2019-06-20T08:53:39.157Z,972.31
2019-06-20T08:54:39.210Z,972.40
2019-06-20T08:55:39.232Z,972.35
2019-06-20T08:56:39.184Z,972.39
2019-06-20T08:57:39.191Z,972.41
2019-06-20T08:58:39.202Z,972.45
2019-06-20T08:59:39.215Z,972.45
2019-06-20T09:00:39.268Z,972.45
2019-06-20T09:01:39.232Z,972.45
2019-06-20T09:02:39.249Z,972.51
2019-06-20T09:03:39.244Z,972.48
2019-06-20T09:04:39.261Z,972.42
2019-06-20T09:05:39.298Z,972.48
2019-06-20T09:06:39.276Z,972.50
2019-06-20T09:07:41.762Z,972.52
2019-06-20T09:08:39.293Z,972.49
2019-06-20T09:09:39.318Z,972.48
2019-06-20T09:10:39.343Z,972.45
2019-06-20T09:11:39.315Z,972.50
2019-06-20T09:12:39.327Z,972.49
2019-06-20T09:13:40.672Z,972.46
2019-06-20T09:14:39.360Z,972.45
2019-06-20T09:15:39.384Z,972.49
2019-06-20T09:16:39.365Z,972.51
2019-06-20T09:17:39.368Z,972.48
2019-06-20T09:18:39.382Z,972.50
2019-06-20T09:19:39.411Z,972.51
2019-06-20T09:20:39.447Z,972.52
2019-06-20T09:21:39.403Z,972.51
2019-06-20T09:22:39.410Z,972.57
2019-06-20T09:23:39.417Z,972.51
2019-06-20T09:24:39.435Z,972.53
2019-06-20T09:25:39.470Z,972.52
2019-06-20T09:26:39.448Z,972.56
2019-06-20T09:27:39.459Z,972.57
2019-06-20T09:28:39.461Z,972.58
2019-06-20T09:29:41.955Z,972.60
2019-06-20T09:30:39.515Z,972.55
2019-06-20T09:31:39.493Z,972.58
2019-06-20T09:32:39.497Z,972.57
2019-06-20T09:33:39.503Z,972.59
2019-06-20T09:34:39.521Z,972.61
2019-06-20T09:35:39.553Z,972.63
2019-06-20T09:36:39.537Z,972.63
2019-06-20T09:37:39.541Z,972.64
2019-06-20T09:38:39.546Z,972.68
2019-06-20T09:39:39.562Z,972.65
2019-06-20T09:40:39.602Z,972.60
2019-06-20T09:41:39.580Z,972.57
2019-06-20T09:42:39.588Z,972.61
2019-06-20T09:43:39.599Z,972.66
2019-06-20T09:44:39.611Z,972.61
2019-06-20T09:45:39.650Z,972.64
2019-06-20T09:46:39.622Z,972.65
2019-06-20T09:47:39.856Z,972.74
2019-06-20T09:48:39.640Z,972.72
2019-06-20T09:49:39.656Z,972.67
2019-06-20T09:50:39.694Z,972.66
2019-06-20T09:51:39.672Z,972.66
2019-06-20T09:52:39.714Z,972.69
2019-06-20T09:53:39.694Z,972.66
2019-06-20T09:54:39.721Z,972.72
2019-06-20T09:55:39.742Z,972.73
2019-06-20T09:56:39.735Z,972.75
2019-06-20T09:57:39.746Z,972.78
2019-06-20T09:58:39.753Z,972.77
2019-06-20T09:59:39.767Z,972.78
2019-06-20T10:00:39.801Z,972.78
2019-06-20T10:01:39.780Z,972.78
2019-06-20T10:02:39.788Z,972.85
2019-06-20T10:03:39.800Z,972.87
2019-06-20T10:04:39.813Z,972.87
2019-06-20T10:05:39.884Z,972.89
2019-06-20T10:06:39.869Z,972.89
2019-06-20T10:07:39.841Z,972.89
2019-06-20T10:08:39.863Z,972.88
2019-06-20T10:09:39.873Z,972.89
2019-06-20T10:10:39.884Z,972.90
2019-06-20T10:11:39.917Z,972.88
2019-06-20T10:12:39.937Z,972.90
2019-06-20T10:13:39.912Z,972.83
2019-06-20T10:14:39.933Z,972.85
2019-06-20T10:15:39.939Z,972.91
2019-06-20T10:16:45.798Z,972.89
2019-06-20T10:17:39.964Z,972.94
2019-06-20T10:18:39.967Z,972.87
2019-06-20T10:19:39.982Z,972.80
2019-06-20T10:20:39.988Z,972.85
2019-06-20T10:21:40.032Z,972.88
2019-06-20T10:22:40.016Z,972.90
2019-06-20T10:23:40.029Z,972.85
2019-06-20T10:24:40.037Z,972.92
2019-06-20T10:25:40.049Z,972.93
2019-06-20T10:26:40.098Z,972.91
2019-06-20T10:27:40.069Z,972.88
2019-06-20T10:28:40.082Z,972.88
2019-06-20T10:29:40.089Z,972.86
2019-06-20T10:30:40.113Z,972.85
2019-06-20T10:31:40.147Z,972.85
2019-06-20T10:32:40.140Z,972.86
2019-06-20T10:33:40.142Z,972.88
2019-06-20T10:34:40.170Z,972.87
2019-06-20T10:35:40.164Z,972.84
2019-06-20T10:36:40.208Z,972.87
2019-06-20T10:37:40.190Z,972.84
2019-06-20T10:38:40.201Z,972.88
2019-06-20T10:39:40.210Z,972.86
2019-06-20T10:40:40.239Z,972.94
2019-06-20T10:41:40.264Z,972.93
2019-06-20T10:42:40.243Z,973.01
2019-06-20T10:43:40.263Z,972.94
2019-06-20T10:44:40.274Z,973.01
2019-06-20T10:45:40.276Z,973.02
2019-06-20T10:46:40.316Z,972.95
2019-06-20T10:47:40.302Z,972.97
2019-06-20T10:48:42.508Z,973.04
2019-06-20T10:49:42.921Z,973.09
2019-06-20T10:50:40.948Z,973.07
2019-06-20T10:51:42.339Z,973.18
2019-06-20T10:52:40.997Z,973.21
2019-06-20T10:53:40.375Z,973.29
2019-06-20T10:54:41.610Z,973.03
2019-06-20T10:55:41.646Z,973.09
2019-06-20T10:56:41.814Z,973.19
2019-06-20T10:57:41.823Z,973.24
2019-06-20T10:58:41.635Z,973.29
2019-06-20T10:59:41.542Z,973.14
2019-06-20T11:00:41.783Z,973.05
2019-06-20T11:01:41.592Z,973.31
2019-06-20T11:02:41.715Z,973.25
2019-06-20T11:03:41.870Z,973.24
2019-06-20T11:04:41.143Z,973.19
2019-06-20T11:05:40.923Z,973.16
2019-06-20T11:06:41.655Z,973.20
2019-06-20T11:07:42.057Z,973.22
2019-06-20T11:08:41.692Z,973.19
2019-06-20T11:09:41.269Z,973.23
2019-06-20T11:10:42.219Z,973.21
2019-06-20T11:11:41.774Z,973.19
2019-06-20T11:12:47.925Z,973.19
2019-06-20T11:13:40.663Z,973.13
2019-06-20T11:14:42.064Z,973.04
2019-06-20T11:15:42.152Z,973.11
2019-06-20T11:16:42.142Z,973.13
2019-06-20T11:17:41.904Z,973.09
2019-06-20T11:18:41.336Z,973.17
2019-06-20T11:19:41.588Z,973.12
2019-06-20T11:20:41.390Z,973.16
2019-06-20T11:21:41.620Z,973.17
2019-06-20T11:22:41.603Z,973.18
2019-06-20T11:23:40.922Z,973.06
2019-06-20T11:24:42.698Z,973.16
2019-06-20T11:25:41.964Z,973.17
2019-06-20T11:26:41.120Z,973.09
2019-06-20T11:27:40.884Z,973.05
2019-06-20T11:28:41.431Z,973.10
2019-06-20T11:29:41.653Z,973.11
2019-06-20T11:30:53.073Z,973.15
2019-06-20T11:31:44.228Z,973.12
2019-06-20T11:32:41.052Z,973.05
2019-06-20T11:33:42.112Z,973.07
2019-06-20T11:34:42.559Z,973.03
2019-06-20T11:35:41.840Z,973.02
2019-06-20T11:36:42.321Z,973.01
2019-06-20T11:37:42.287Z,973.03
2019-06-20T11:38:42.464Z,973.03
2019-06-20T11:39:41.135Z,973.03
2019-06-20T11:40:41.642Z,973.05
2019-06-20T11:41:41.661Z,973.03
2019-06-20T11:42:41.977Z,972.93
2019-06-20T11:43:42.166Z,973.08
2019-06-20T11:44:41.111Z,973.04
2019-06-20T11:45:41.123Z,973.06
2019-06-20T11:46:42.665Z,973.09
2019-06-20T11:47:42.472Z,973.04
2019-06-20T11:48:43.033Z,973.01
2019-06-20T11:49:42.438Z,972.99
2019-06-20T11:50:42.418Z,973.04
2019-06-20T11:51:41.929Z,973.04
2019-06-20T11:52:43.932Z,972.99
2019-06-20T11:53:42.597Z,972.92
2019-06-20T11:54:42.465Z,972.83
2019-06-20T11:55:41.278Z,973.00
2019-06-20T11:56:41.281Z,972.98
2019-06-20T11:57:41.335Z,972.97
2019-06-20T11:58:41.316Z,973.08
2019-06-20T11:59:41.341Z,973.06
2019-06-20T12:00:41.365Z,973.05
2019-06-20T12:01:42.794Z,973.06
2019-06-20T12:02:42.765Z,973.02
2019-06-20T12:03:42.487Z,973.00
2019-06-20T12:04:41.800Z,972.98
2019-06-20T12:05:41.924Z,972.93
2019-06-20T12:06:42.971Z,972.98
2019-06-20T12:07:43.151Z,972.90
2019-06-20T12:08:42.389Z,972.90
2019-06-20T12:09:41.479Z,972.89
2019-06-20T12:10:42.975Z,972.88
2019-06-20T12:11:42.409Z,972.92
2019-06-20T12:12:42.596Z,972.90
2019-06-20T12:13:42.096Z,972.76
2019-06-20T12:14:42.586Z,972.66
2019-06-20T12:15:42.751Z,972.69
2019-06-20T12:16:42.398Z,972.87
2019-06-20T12:17:43.249Z,972.87
2019-06-20T12:18:43.049Z,972.79
2019-06-20T12:19:42.460Z,972.72
2019-06-20T12:20:42.876Z,972.74
2019-06-20T12:21:42.472Z,972.79
2019-06-20T12:22:43.142Z,972.67
2019-06-20T12:23:42.528Z,972.60
2019-06-20T12:24:42.920Z,972.81
2019-06-20T12:25:42.686Z,972.79
2019-06-20T12:26:42.415Z,972.82
2019-06-20T12:27:43.128Z,972.77
2019-06-20T12:28:42.307Z,972.81